createdAt,value
2022-09-03T00:00:35.183Z,65.02
2022-09-03T00:03:33.023Z,65.13
2022-09-03T00:06:30.508Z,65.22
2022-09-03T00:09:28.020Z,65.38
2022-09-03T00:12:26.870Z,65.48
2022-09-03T00:15:24.350Z,65.61
2022-09-03T00:18:21.897Z,65.75
2022-09-03T00:21:19.397Z,65.87
2022-09-03T00:24:16.864Z,66.00
2022-09-03T00:27:14.376Z,66.14
2022-09-03T00:30:14.654Z,66.28
2022-09-03T00:33:14.930Z,66.36
2022-09-03T00:36:12.690Z,66.47
2022-09-03T00:39:10.174Z,66.57
2022-09-03T00:42:08.276Z,66.71
2022-09-03T00:45:06.571Z,66.82
2022-09-03T00:48:04.049Z,66.93
2022-09-03T00:51:02.207Z,66.99
2022-09-03T00:53:59.676Z,67.07
2022-09-03T00:56:57.151Z,67.11
2022-09-03T00:59:57.134Z,67.18
2022-09-03T01:02:54.685Z,67.26
2022-09-03T01:05:52.434Z,67.38
2022-09-03T01:08:51.139Z,67.47
2022-09-03T01:11:50.151Z,67.65
2022-09-03T01:14:47.620Z,67.75
2022-09-03T01:17:45.080Z,67.83
2022-09-03T01:20:42.545Z,67.97
2022-09-03T01:23:40.019Z,68.03
2022-09-03T01:26:37.530Z,68.15
2022-09-03T01:29:35.720Z,68.28
2022-09-03T01:32:37.351Z,68.38
2022-09-03T01:35:35.155Z,68.47
2022-09-03T01:38:32.631Z,68.57
2022-09-03T01:41:47.970Z,68.70
2022-09-03T01:44:45.455Z,68.84
2022-09-03T01:47:48.120Z,68.98
2022-09-03T01:50:45.607Z,69.13
2022-09-03T01:53:43.105Z,69.20
2022-09-03T01:56:40.577Z,69.30
2022-09-03T01:59:38.076Z,69.38
2022-09-03T02:02:36.150Z,69.43
2022-09-03T02:05:35.863Z,69.56
2022-09-03T02:08:33.318Z,69.66
2022-09-03T02:11:30.785Z,69.71
2022-09-03T02:14:28.260Z,69.76
2022-09-03T02:17:25.764Z,69.88
2022-09-03T02:20:23.252Z,70.00
2022-09-03T02:23:24.743Z,70.07
2022-09-03T02:26:25.829Z,70.19
2022-09-03T02:29:23.304Z,70.29
2022-09-03T02:32:20.781Z,70.35
2022-09-03T02:35:18.256Z,70.43
2022-09-03T02:38:17.308Z,70.50
2022-09-03T02:41:15.590Z,70.56
2022-09-03T02:44:13.049Z,70.62
2022-09-03T02:47:10.561Z,70.65
2022-09-03T02:50:08.023Z,70.65
2022-09-03T02:53:05.671Z,70.71
2022-09-03T02:56:03.311Z,70.77
2022-09-03T02:59:01.405Z,70.80
2022-09-03T03:02:01.286Z,70.80
2022-09-03T03:04:58.901Z,70.84
2022-09-03T03:07:56.836Z,70.88
2022-09-03T03:10:57.142Z,70.89
2022-09-03T03:13:54.633Z,70.89
2022-09-03T03:16:52.183Z,70.95
2022-09-03T03:19:50.292Z,71.00
2022-09-03T03:22:47.800Z,71.05
2022-09-03T03:25:45.277Z,71.10
2022-09-03T03:28:42.795Z,71.11
2022-09-03T03:31:40.269Z,71.19
2022-09-03T03:34:38.667Z,71.22
2022-09-03T03:37:36.887Z,71.30
2022-09-03T03:40:35.028Z,71.34
2022-09-03T03:43:32.516Z,71.40
2022-09-03T03:46:29.996Z,71.47
2022-09-03T03:49:27.512Z,71.50
2022-09-03T03:52:25.055Z,71.52
2022-09-03T03:55:23.028Z,71.60
2022-09-03T03:58:25.211Z,71.62
2022-09-03T04:01:22.942Z,71.62
2022-09-03T04:04:20.475Z,71.69
2022-09-03T04:07:17.941Z,71.74
2022-09-03T04:10:15.658Z,71.79
2022-09-03T04:13:13.139Z,71.82
2022-09-03T04:16:11.182Z,71.89
2022-09-03T04:19:08.684Z,71.93
2022-09-03T04:22:06.172Z,72.02
2022-09-03T04:25:03.656Z,72.07
2022-09-03T04:28:03.985Z,72.13
2022-09-03T04:31:01.583Z,72.20
2022-09-03T04:33:59.168Z,72.24
2022-09-03T04:36:57.633Z,72.31
2022-09-03T04:39:55.300Z,72.38
2022-09-03T04:42:52.948Z,72.42
2022-09-03T04:45:50.495Z,72.47
2022-09-03T04:48:47.988Z,72.49
2022-09-03T04:51:45.450Z,72.55
2022-09-03T04:54:43.003Z,72.59
2022-09-03T04:57:43.176Z,72.63
2022-09-03T05:00:40.717Z,72.69
2022-09-03T05:03:38.632Z,72.70
2022-09-03T05:06:36.159Z,72.75
2022-09-03T05:09:33.653Z,72.78
2022-09-03T05:12:31.914Z,72.73
2022-09-03T05:15:29.395Z,72.73
2022-09-03T05:18:26.860Z,72.73
2022-09-03T05:21:24.716Z,72.69
2022-09-03T05:24:22.200Z,72.57
2022-09-03T05:27:19.690Z,72.40
2022-09-03T05:30:17.239Z,72.34
2022-09-03T05:33:15.537Z,72.32
2022-09-03T05:36:13.028Z,72.26
2022-09-03T05:39:10.522Z,72.16
2022-09-03T05:42:08.023Z,72.03
2022-09-03T05:45:05.610Z,71.90
2022-09-03T05:48:03.097Z,71.82
2022-09-03T05:51:01.097Z,71.66
2022-09-03T05:53:58.569Z,71.47
2022-09-03T05:56:56.162Z,71.29
2022-09-03T05:59:53.647Z,71.06
2022-09-03T06:02:51.166Z,70.80
2022-09-03T06:05:49.003Z,70.54
2022-09-03T06:08:46.472Z,70.28
2022-09-03T06:11:43.956Z,69.93
2022-09-03T06:14:43.753Z,69.57
2022-09-03T06:17:41.238Z,69.23
2022-09-03T06:20:40.254Z,68.79
2022-09-03T06:23:37.712Z,68.17
2022-09-03T06:26:38.838Z,67.49
2022-09-03T06:29:37.109Z,67.00
2022-09-03T06:32:34.590Z,66.40
2022-09-03T06:35:32.164Z,65.77
2022-09-03T06:38:40.581Z,65.07
2022-09-03T06:41:38.620Z,64.39
2022-09-03T06:44:36.101Z,63.57
2022-09-03T06:47:34.055Z,62.57
2022-09-03T06:50:34.617Z,61.85
2022-09-03T06:53:32.401Z,60.97
2022-09-03T06:56:29.894Z,59.95
2022-09-03T06:59:27.362Z,59.22
2022-09-03T07:02:24.888Z,58.46
2022-09-03T07:05:25.663Z,57.57
2022-09-03T07:08:23.160Z,56.58
2022-09-03T07:11:22.521Z,55.75
2022-09-03T07:14:20.057Z,54.93
2022-09-03T07:17:17.608Z,54.03
2022-09-03T07:20:15.091Z,52.93
2022-09-03T07:23:13.187Z,52.27
2022-09-03T07:26:10.719Z,51.33
2022-09-03T07:29:08.788Z,50.64
2022-09-03T07:32:06.346Z,49.83
2022-09-03T07:35:03.829Z,48.75
2022-09-03T07:38:01.338Z,48.18
2022-09-03T07:40:59.275Z,47.20
2022-09-03T07:43:57.293Z,46.33
2022-09-03T07:46:55.845Z,46.13
2022-09-03T07:49:53.365Z,45.16
2022-09-03T07:52:50.856Z,44.67
2022-09-03T07:55:49.520Z,44.21
2022-09-03T07:58:47.809Z,43.58
2022-09-03T08:01:45.270Z,43.34
2022-09-03T08:04:43.660Z,42.67
2022-09-03T08:07:41.188Z,42.05
2022-09-03T08:10:40.193Z,41.32
2022-09-03T08:13:37.678Z,40.86
2022-09-03T08:16:35.225Z,40.47
2022-09-03T08:19:32.858Z,39.98
2022-09-03T08:22:30.347Z,39.95
2022-09-03T08:25:27.863Z,39.69
2022-09-03T08:28:25.423Z,39.28
2022-09-03T08:31:23.052Z,38.75
2022-09-03T08:34:20.597Z,37.84
2022-09-03T08:37:18.074Z,37.73
2022-09-03T08:40:15.555Z,37.53
2022-09-03T08:43:13.390Z,37.12
2022-09-03T08:46:10.909Z,37.14
2022-09-03T08:49:08.431Z,36.95
2022-09-03T08:52:05.904Z,36.44
2022-09-03T08:55:03.438Z,36.00
2022-09-03T08:58:00.901Z,35.89
2022-09-03T09:01:01.694Z,35.45
2022-09-03T09:03:59.397Z,35.02
2022-09-03T09:06:57.266Z,34.52
2022-09-03T09:09:54.758Z,34.50
2022-09-03T09:12:52.235Z,34.52
2022-09-03T09:15:49.762Z,34.33
2022-09-03T09:18:47.758Z,34.09
2022-09-03T09:21:46.315Z,33.71
2022-09-03T09:24:44.276Z,33.33
2022-09-03T09:27:41.748Z,33.29
2022-09-03T09:30:39.237Z,33.17
2022-09-03T09:33:36.722Z,32.75
2022-09-03T09:36:34.195Z,32.38
2022-09-03T09:39:32.118Z,32.26
2022-09-03T09:42:31.213Z,31.89
2022-09-03T09:45:28.753Z,31.75
2022-09-03T09:48:27.204Z,31.43
2022-09-03T09:51:24.658Z,30.98
2022-09-03T09:54:22.279Z,31.22
2022-09-03T09:57:19.779Z,31.13
2022-09-03T10:00:17.319Z,31.16
2022-09-03T10:03:14.880Z,30.82
2022-09-03T10:06:30.026Z,30.71
2022-09-03T10:09:31.383Z,30.83
2022-09-03T10:12:29.366Z,30.51
2022-09-03T10:15:26.851Z,30.44
2022-09-03T10:18:28.728Z,30.63
2022-09-03T10:21:26.552Z,30.52
2022-09-03T10:24:24.178Z,30.49
2022-09-03T10:27:23.036Z,30.27
2022-09-03T10:30:20.527Z,30.23
2022-09-03T10:33:18.079Z,30.03
2022-09-03T10:36:15.642Z,29.49
2022-09-03T10:39:13.142Z,29.60
2022-09-03T10:42:11.282Z,30.16
2022-09-03T10:45:09.778Z,30.35
2022-09-03T10:48:07.255Z,30.52
2022-09-03T10:51:04.869Z,30.57
2022-09-03T10:54:02.357Z,30.67
2022-09-03T10:56:59.889Z,30.73
2022-09-03T10:59:57.360Z,30.52
2022-09-03T11:02:54.985Z,30.29
2022-09-03T11:05:53.091Z,29.85
2022-09-03T11:08:51.157Z,29.47
2022-09-03T11:11:48.652Z,29.52
2022-09-03T11:14:46.887Z,29.83
2022-09-03T11:17:44.392Z,29.52
2022-09-03T11:20:42.437Z,29.62
2022-09-03T11:23:40.707Z,29.27
2022-09-03T11:26:39.905Z,29.00
2022-09-03T11:29:38.299Z,28.86
2022-09-03T11:32:35.802Z,28.97
2022-09-03T11:35:33.725Z,28.77
2022-09-03T11:38:32.222Z,28.74
2022-09-03T11:41:29.698Z,28.63
2022-09-03T11:44:27.765Z,28.42
2022-09-03T11:47:25.248Z,28.63
2022-09-03T11:50:22.766Z,28.92
2022-09-03T11:53:20.382Z,28.77
2022-09-03T11:56:17.900Z,28.73
2022-09-03T11:59:16.766Z,28.80
2022-09-03T12:02:14.287Z,28.95
2022-09-03T12:05:12.397Z,28.78
2022-09-03T12:08:09.873Z,28.70
2022-09-03T12:11:09.884Z,28.65
2022-09-03T12:14:11.653Z,28.80
2022-09-03T12:17:11.105Z,28.79
2022-09-03T12:20:08.600Z,28.82
2022-09-03T12:23:06.711Z,29.24
2022-09-03T12:26:04.181Z,29.40
2022-09-03T12:29:02.851Z,29.29
2022-09-03T12:32:01.832Z,29.30
2022-09-03T12:34:59.311Z,29.17
2022-09-03T12:38:06.527Z,29.38
2022-09-03T12:41:26.826Z,29.13
2022-09-03T12:44:23.743Z,29.08
2022-09-03T12:47:38.028Z,29.33
2022-09-03T12:50:35.793Z,29.70
2022-09-03T12:53:33.277Z,29.53
2022-09-03T12:56:32.391Z,29.44
2022-09-03T12:59:30.376Z,29.53
2022-09-03T13:02:27.966Z,29.63
2022-09-03T13:05:25.488Z,29.54
2022-09-03T13:08:22.955Z,29.61
2022-09-03T13:11:20.448Z,29.68
2022-09-03T13:14:19.125Z,29.44
2022-09-03T13:17:16.706Z,29.42
2022-09-03T13:20:14.184Z,29.73
2022-09-03T13:23:12.094Z,30.01
2022-09-03T13:26:10.706Z,30.17
2022-09-03T13:29:08.179Z,30.34
2022-09-03T13:32:06.328Z,30.57
2022-09-03T13:35:03.934Z,30.58
2022-09-03T13:38:02.133Z,30.56
2022-09-03T13:40:59.826Z,30.43
2022-09-03T13:43:57.287Z,30.71
2022-09-03T13:46:54.787Z,30.98
2022-09-03T13:50:10.176Z,31.28
2022-09-03T13:53:07.767Z,31.18
2022-09-03T13:56:06.660Z,31.36
2022-09-03T13:59:05.238Z,31.67
2022-09-03T14:02:02.751Z,32.15
2022-09-03T14:05:00.286Z,32.08
2022-09-03T14:07:58.086Z,32.19
2022-09-03T14:10:55.905Z,32.44
2022-09-03T14:13:54.794Z,32.50
2022-09-03T14:16:55.375Z,32.38
2022-09-03T14:19:53.042Z,32.54
2022-09-03T14:22:50.517Z,32.60
2022-09-03T14:25:48.112Z,32.67
2022-09-03T14:28:45.610Z,32.69
2022-09-03T14:31:43.126Z,33.13
2022-09-03T14:34:40.646Z,33.18
2022-09-03T14:37:38.172Z,33.13
2022-09-03T14:40:35.671Z,33.23
2022-09-03T14:43:33.143Z,33.62
2022-09-03T14:46:30.679Z,33.85
2022-09-03T14:49:28.542Z,33.74
2022-09-03T14:52:26.001Z,33.83
2022-09-03T14:55:23.489Z,34.07
2022-09-03T14:58:21.022Z,34.21
2022-09-03T15:01:18.532Z,34.63
2022-09-03T15:04:16.059Z,34.82
2022-09-03T15:07:13.539Z,34.97
2022-09-03T15:10:11.036Z,35.23
2022-09-03T15:13:08.539Z,35.41
2022-09-03T15:16:06.518Z,35.56
2022-09-03T15:19:05.053Z,35.77
2022-09-03T15:22:03.781Z,36.01
2022-09-03T15:25:01.260Z,35.92
2022-09-03T15:27:58.751Z,36.09
2022-09-03T15:30:56.499Z,36.17
2022-09-03T15:33:54.003Z,36.32
2022-09-03T15:36:53.878Z,36.47
2022-09-03T15:39:51.558Z,36.69
2022-09-03T15:42:49.060Z,36.92
2022-09-03T15:45:46.628Z,37.11
2022-09-03T15:48:44.863Z,37.38
2022-09-03T15:51:43.329Z,37.72
2022-09-03T15:54:43.660Z,37.93
2022-09-03T15:57:41.137Z,38.11
2022-09-03T16:00:40.655Z,38.40
2022-09-03T16:03:40.174Z,38.65
2022-09-03T16:06:38.516Z,38.88
2022-09-03T16:09:35.998Z,39.11
2022-09-03T16:12:33.479Z,39.40
2022-09-03T16:15:32.025Z,39.79
2022-09-03T16:18:30.597Z,40.12
2022-09-03T16:21:28.099Z,40.39
2022-09-03T16:24:26.058Z,40.75
2022-09-03T16:27:23.542Z,41.04
2022-09-03T16:30:21.042Z,41.33
2022-09-03T16:33:19.385Z,41.56
2022-09-03T16:36:16.883Z,41.86
2022-09-03T16:39:14.466Z,42.15
2022-09-03T16:42:11.990Z,42.33
2022-09-03T16:45:12.038Z,42.56
2022-09-03T16:48:10.109Z,42.84
2022-09-03T16:51:07.886Z,43.01
2022-09-03T16:54:05.811Z,43.16
2022-09-03T16:57:03.360Z,43.38
2022-09-03T17:00:00.857Z,43.58
2022-09-03T17:02:58.626Z,43.73
2022-09-03T17:05:56.105Z,43.92
2022-09-03T17:08:53.585Z,44.12
2022-09-03T17:11:51.060Z,44.33
2022-09-03T17:14:48.589Z,44.51
2022-09-03T17:17:46.537Z,44.71
2022-09-03T17:20:49.076Z,44.81
2022-09-03T17:23:47.053Z,45.05
2022-09-03T17:26:44.659Z,45.23
2022-09-03T17:29:43.543Z,45.36
2022-09-03T17:32:41.032Z,45.48
2022-09-03T17:35:38.533Z,45.63
2022-09-03T17:38:36.001Z,45.73
2022-09-03T17:41:34.344Z,45.99
2022-09-03T17:44:32.018Z,46.28
2022-09-03T17:47:29.505Z,46.50
2022-09-03T17:50:27.605Z,46.46
2022-09-03T17:53:27.121Z,46.63
2022-09-03T17:56:24.697Z,46.72
2022-09-03T17:59:22.160Z,46.93
2022-09-03T18:02:19.664Z,47.02
2022-09-03T18:05:20.686Z,47.18
2022-09-03T18:08:18.161Z,47.48
2022-09-03T18:11:15.952Z,47.71
2022-09-03T18:14:13.870Z,47.97
2022-09-03T18:17:13.502Z,48.19
2022-09-03T18:20:28.795Z,48.33
2022-09-03T18:23:44.431Z,48.52
2022-09-03T18:26:59.463Z,48.90
2022-09-03T18:30:14.277Z,49.18
2022-09-03T18:33:29.075Z,49.42
2022-09-03T18:36:44.282Z,49.78
2022-09-03T18:39:59.691Z,50.10
2022-09-03T18:43:15.555Z,50.45
2022-09-03T18:50:06.371Z,51.34
2022-09-03T18:53:25.418Z,51.70
2022-09-03T18:56:43.371Z,52.05
2022-09-03T18:59:58.881Z,52.34
2022-09-03T19:03:15.636Z,52.55
2022-09-03T19:06:34.608Z,52.83
2022-09-03T19:09:50.413Z,53.00
2022-09-03T19:13:05.945Z,53.19
2022-09-03T19:16:22.679Z,53.41
2022-09-03T19:19:38.570Z,53.65
2022-09-03T19:22:54.071Z,53.92
2022-09-03T19:26:09.388Z,54.17
2022-09-03T19:29:25.003Z,54.40
2022-09-03T19:32:40.558Z,54.62
2022-09-03T19:35:56.327Z,54.84
2022-09-03T19:39:12.016Z,55.17
2022-09-03T19:42:28.563Z,55.37
2022-09-03T19:45:43.974Z,55.53
2022-09-03T19:48:59.539Z,55.72
2022-09-03T19:52:14.970Z,55.96
2022-09-03T19:55:31.532Z,56.17
2022-09-03T19:58:47.462Z,56.43
2022-09-03T20:02:03.190Z,56.64
2022-09-03T20:05:19.090Z,56.82
2022-09-03T20:08:34.668Z,57.09
2022-09-03T20:11:32.461Z,57.36
2022-09-03T20:14:30.141Z,57.51
2022-09-03T20:17:27.709Z,57.67
2022-09-03T20:20:25.474Z,57.99
2022-09-03T20:23:23.313Z,58.23
2022-09-03T20:26:20.827Z,58.54
2022-09-03T20:29:18.451Z,58.83
2022-09-03T20:32:15.989Z,59.12
2022-09-03T20:35:13.523Z,59.41
2022-09-03T20:38:11.101Z,59.65
2022-09-03T20:41:08.579Z,59.91
2022-09-03T20:44:06.063Z,60.13
2022-09-03T20:47:04.625Z,60.36
2022-09-03T20:50:04.366Z,60.55
2022-09-03T20:53:03.153Z,60.74
2022-09-03T20:56:02.998Z,61.00
2022-09-03T20:59:01.366Z,61.21
2022-09-03T21:01:59.017Z,61.47
2022-09-03T21:04:56.655Z,61.72
2022-09-03T21:07:54.139Z,61.96
2022-09-03T21:10:51.635Z,62.16
2022-09-03T21:13:49.109Z,62.33
2022-09-03T21:16:46.594Z,62.55
2022-09-03T21:19:44.099Z,62.71
2022-09-03T21:22:41.569Z,62.95
2022-09-03T21:25:39.042Z,63.14
2022-09-03T21:28:38.695Z,63.32
2022-09-03T21:31:38.580Z,63.54
2022-09-03T21:34:36.411Z,63.72
2022-09-03T21:37:33.902Z,63.99
2022-09-03T21:40:32.525Z,64.22
2022-09-03T21:43:30.400Z,64.41
2022-09-03T21:46:27.906Z,64.66
2022-09-03T21:49:25.419Z,64.80
2022-09-03T21:52:22.896Z,64.92
2022-09-03T21:55:20.725Z,65.10
2022-09-03T21:58:18.249Z,65.19
2022-09-03T22:01:15.806Z,65.28
2022-09-03T22:04:13.303Z,65.38
2022-09-03T22:07:10.770Z,65.40
2022-09-03T22:10:08.387Z,65.45
2022-09-03T22:13:09.362Z,65.53
2022-09-03T22:16:07.375Z,65.50
2022-09-03T22:19:09.149Z,65.30
2022-09-03T22:22:06.640Z,65.37
2022-09-03T22:25:05.162Z,65.31
2022-09-03T22:28:03.503Z,65.28
2022-09-03T22:31:01.011Z,65.31
2022-09-03T22:33:58.515Z,65.32
2022-09-03T22:36:55.995Z,65.28
2022-09-03T22:39:53.533Z,65.22
2022-09-03T22:42:51.041Z,65.21
2022-09-03T22:45:48.576Z,65.25
2022-09-03T22:48:46.073Z,65.29
2022-09-03T22:51:43.553Z,65.37
2022-09-03T22:54:41.046Z,65.43
2022-09-03T22:57:38.528Z,65.56
2022-09-03T23:00:35.989Z,65.63
2022-09-03T23:03:37.111Z,65.74
2022-09-03T23:06:34.686Z,65.82
2022-09-03T23:09:32.184Z,65.90
2022-09-03T23:12:29.659Z,66.02
2022-09-03T23:15:30.687Z,66.13
2022-09-03T23:18:28.179Z,66.22
2022-09-03T23:21:25.670Z,66.38
2022-09-03T23:24:23.139Z,66.55
2022-09-03T23:27:20.604Z,66.71
2022-09-03T23:30:18.096Z,66.89
2022-09-03T23:33:15.587Z,67.00
2022-09-03T23:36:13.908Z,67.13
2022-09-03T23:39:11.376Z,67.38
2022-09-03T23:42:09.122Z,67.53
2022-09-03T23:45:07.153Z,67.65
2022-09-03T23:48:07.700Z,67.75
2022-09-03T23:51:05.206Z,67.84
2022-09-03T23:54:02.698Z,67.85
2022-09-03T23:57:00.729Z,67.87
2022-09-03T23:59:58.217Z,67.92
